MMCM 082341Z 11007KT 7SM SCT020 28/23 A2996 RMK SLP147 5//// 900 8/500= 082342

MMCM 082241Z 11011KT 7SM SCT020 28/23 A2996 RMK 8/500= 082241

MMCM 082147Z 12005KT 7SM SCT020 29/24 A2995 RMK 8/500= 082148

MMCM 082044Z 10013KT 7SM SCT020 30/24 A2995 RMK SLP143 5//// 900 8/500= 082046

MMCM 081944Z 13012KT 7SM SCT020 30/26 A2996 RMK 8/500= 081945

MMCM 081843Z 14009KT 7SM SCT020 30/24 A2998 RMK 8/500= 081843

MMCM 081740Z 14009KT 7SM SCT020CB 30/25 A3001 RMK SLP164 5//// 900 8/300= 081741

MMCM 081640Z 13010KT 7SM SCT020 30/24 A3004 RMK 8/100= 081640

MMCM 081545Z 11010KT 7SM SCT020 29/24 A3005 RMK 8/500= 081547

MMCM 081448Z 00000KT 7SM SKC 28/24 A3004 RMK SLP174 5//// 903= 081451

MMCM 081342Z 00000KT 7SM SCT020 26/23 A3002 RMK 8/100= 081342

MMCM 081243Z 00000KT 7SM BKN020 23/22 A3001 RMK 8/500= 081243

MMCM 081155Z 00000KT 7SM BKN020 22/22 A2999 RMK SLP157 5//// 903 8/500 RTS= 081156

MMCM 080241Z 10008KT 7SM SCT020 27/24 A3001 RMK SLP164 5//// 9// 8/500= 080241

MMCM 080143Z 10005KT 7SM SCT020 27/24 A3000 RMK 8/500= 080144

MMCM 080043Z 00000KT 7SM SCT020 27/24 A2998 RMK 8/500= 080043

MMCM 072345Z 11005KT 7SM SCT020 27/24 A2996 RMK SLP147 5//// 953 8/500= 072346

MMCM 072245Z 09008KT 7SM SCT020 28/23 A2996 RMK 8/100= 072245

MMCM 072146Z 10006KT 7SM SCT020 30/23 A2994 RMK 8/100= 072146

MMCM 072045Z 11008KT 7SM SCT020 30/23 A2995 RMK SLP143 5//// 954 8/100= 072048

MMCM 071945Z 12008KT 10SM SCT020 30/23 A2996 RMK 8/100= 071946

MMCM 071841Z 12010KT 7SM SCT020 31/24 A2998 RMK 8/100= 071842

MMCM 071743Z 00000KT 7SM SCT020 31/24 A3001 RMK SLP164 5//// 953 8/500= 071743

MMCM 071641Z 12010KT 7SM SCT020 29/24 A3003 RMK 8/100= 071643

MMCM 071547Z 12006KT 7SM SCT020 29/24 A3004 RMK 8/500= 071548

MMCM 071449Z 00000KT 7SM SCT020 29/25 A3003 RMK SLP171 5//// 956 8/500= 071450

MMCM 071350Z 01010KT 7SM SCT020 25/24 A3002 RMK 8/100= 071350

MMCM 071254Z 26010KT 7SM SCT020 23/23 A2999 RMK 8/500= 071255

MMCM 071227Z RTD 00000KT 7SM SCT020 22/22 A2998 RMK SLP154 5//// 963 8/500 RTS= 071228

MMCM 062340Z 12008KT 7SM SCT020 27/24 A2997 RMK SLP150 5//// 903 8/500 HZY FU W= 062341

MMCM 062242Z 12012KT 7SM SCT020 28/24 A2995 RMK 8/500 HZY W= 062243

MMCM 062142Z 14010KT 7SM SCT020 29/24 A2995 RMK 8/500= 062142

MMCM 062043Z 12012KT 7SM SCT020 30/24 A2996 RMK SLP147 5//// 907 8/500= 062043

MMCM 061941Z 12010KT 7SM SCT020 30/23 A2997 RMK 8/500= 061942

MMCM 061841Z 12008KT 7SM SCT020 30/24 A2999 RMK 8/500= 061842

MMCM 061744Z 11007KT 7SM SCT020 30/24 A3001 RMK SLP164 5//// 957 8/500= 061744

MMCM 061658Z RTD 12010KT 7SM SCT020 29/24 A3003 RMK 8/500= 061659

MMCM 061541Z 00000KT 7SM SCT020 29/24 A3004 RMK 8/500= 061541

MMCM 061445Z 00000KT 7SM SKC 26/24 A3005 RMK SLP177 5//// 957= 061446

MMCM 061340Z 36010KT 7SM SCT010 23/22 A3004 RMK 8/100= 061341

MMCM 061253Z 00000KT 7SM SCT010 BKN100 21/21 A3003 RMK 8/120= 061254

MMCM 061203Z RTD 00000KT 3SM BR SCT020 21/21 A3002 RMK SLP167 5//// 954 6//// 8/600 RTS= 061205